createdAt,value
2023-05-14T00:06:13.646Z,102095.53
2023-05-14T00:16:35.147Z,102106.16
2023-05-14T00:26:56.627Z,102092.81
2023-05-14T00:37:18.039Z,102085.94
2023-05-14T00:47:40.141Z,102084.47
2023-05-14T00:58:02.525Z,102077.09
2023-05-14T01:08:40.881Z,102081.94
2023-05-14T01:19:02.739Z,102079.34
2023-05-14T01:29:26.130Z,102081.13
2023-05-14T01:39:48.401Z,102069.19
2023-05-14T01:50:10.051Z,102061.72
2023-05-14T02:00:31.408Z,102050.75
2023-05-14T02:10:52.769Z,102043.38
2023-05-14T02:21:14.128Z,102038.34
2023-05-14T02:31:35.634Z,102025.63
2023-05-14T02:41:57.074Z,102017.38
2023-05-14T02:52:18.425Z,102004.63
2023-05-14T03:02:39.903Z,101988.16
2023-05-14T03:13:01.617Z,101992.78
2023-05-14T03:23:23.004Z,101987.47
2023-05-14T03:33:45.946Z,101986.69
2023-05-14T03:44:07.296Z,101987.63
2023-05-14T03:54:28.686Z,101981.63
2023-05-14T04:04:50.092Z,101974.69
2023-05-14T04:15:11.740Z,101982.44
2023-05-14T04:25:33.250Z,101999.13
2023-05-14T04:35:54.593Z,101993.91
2023-05-14T04:46:16.026Z,101999.09
2023-05-14T04:56:37.466Z,101995.63
2023-05-14T05:06:58.825Z,102009.41
2023-05-14T05:17:20.276Z,102009.25
2023-05-14T05:27:41.765Z,102011.00
2023-05-14T05:38:03.226Z,102010.03
2023-05-14T05:48:24.596Z,101998.50
2023-05-14T05:58:45.961Z,102018.16
2023-05-14T06:09:08.887Z,102018.81
2023-05-14T06:19:30.327Z,102019.44
2023-05-14T06:29:51.783Z,102034.63
2023-05-14T06:40:15.640Z,102030.50
2023-05-14T06:50:37.033Z,102034.84
2023-05-14T07:00:58.416Z,102035.13
2023-05-14T07:11:19.779Z,102031.94
2023-05-14T07:21:41.356Z,102014.25
2023-05-14T07:32:02.778Z,102021.63
2023-05-14T07:42:35.144Z,102012.41
2023-05-14T07:52:57.732Z,101999.00
2023-05-14T08:03:19.247Z,101994.66
2023-05-14T08:13:41.517Z,101992.94
2023-05-14T08:24:02.872Z,101983.03
2023-05-14T08:34:24.382Z,101976.88
2023-05-14T08:44:48.308Z,101982.78
2023-05-14T08:55:10.513Z,101959.00
2023-05-14T09:05:33.293Z,101948.00
2023-05-14T09:15:55.065Z,101948.13
2023-05-14T09:26:17.587Z,101937.13
2023-05-14T09:36:40.802Z,101935.13
2023-05-14T09:47:02.178Z,101921.28
2023-05-14T09:57:23.808Z,101918.94
2023-05-14T10:07:49.362Z,101916.31
2023-05-14T10:18:12.191Z,101914.22
2023-05-14T10:28:33.782Z,101894.59
2023-05-14T10:38:55.950Z,101888.47
2023-05-14T10:49:25.785Z,101877.34
2023-05-14T10:59:55.151Z,101862.66
2023-05-14T11:10:17.479Z,101868.69
2023-05-14T11:20:39.063Z,101852.38
2023-05-14T11:31:00.495Z,101837.84
2023-05-14T11:41:23.095Z,101828.13
2023-05-14T11:51:44.735Z,101806.28
2023-05-14T12:02:08.592Z,101817.66
2023-05-14T12:12:34.606Z,101806.53
2023-05-14T12:22:55.978Z,101789.03
2023-05-14T12:33:17.982Z,101781.78
2023-05-14T12:43:40.960Z,101779.84
2023-05-14T12:54:02.303Z,101762.75
2023-05-14T13:04:23.769Z,101753.25
2023-05-14T13:14:45.288Z,101747.50
2023-05-14T13:25:07.009Z,101722.47
2023-05-14T13:35:28.505Z,101716.66
2023-05-14T13:45:50.201Z,101712.31
2023-05-14T13:56:11.717Z,101701.63
2023-05-14T14:06:33.287Z,101687.81
2023-05-14T14:16:54.720Z,101677.06
2023-05-14T14:27:16.074Z,101671.06
2023-05-14T14:37:37.436Z,101659.50
2023-05-14T14:48:17.410Z,101645.09
2023-05-14T14:58:38.858Z,101645.19
2023-05-14T15:09:00.310Z,101643.13
2023-05-14T15:19:21.888Z,101635.31
2023-05-14T15:29:43.404Z,101631.28
2023-05-14T15:40:08.112Z,101624.03
2023-05-14T15:50:29.500Z,101616.38
2023-05-14T16:00:50.856Z,101611.59
2023-05-14T16:11:12.218Z,101618.28
2023-05-14T16:21:34.248Z,101620.56
2023-05-14T16:31:55.734Z,101619.06
2023-05-14T16:42:17.130Z,101616.34
2023-05-14T16:52:38.705Z,101627.97
2023-05-14T17:03:00.158Z,101621.28
2023-05-14T17:13:21.561Z,101614.50
2023-05-14T17:23:43.057Z,101605.94
2023-05-14T17:34:04.388Z,101594.09
2023-05-14T17:44:25.745Z,101595.59
2023-05-14T17:54:47.108Z,101585.97
2023-05-14T18:05:08.534Z,101587.97
2023-05-14T18:15:31.451Z,101600.72
2023-05-14T18:25:52.891Z,101626.13
2023-05-14T18:36:14.298Z,101631.44
2023-05-14T18:46:35.720Z,101626.88
2023-05-14T18:56:57.234Z,101627.69
2023-05-14T19:07:18.925Z,101625.34
2023-05-14T19:17:40.422Z,101627.19
2023-05-14T19:28:03.590Z,101617.34
2023-05-14T19:38:25.012Z,101617.81
2023-05-14T19:48:46.561Z,101626.56
2023-05-14T19:59:07.963Z,101635.16
2023-05-14T20:09:29.320Z,101615.44
2023-05-14T20:19:52.187Z,101615.50
2023-05-14T20:30:13.613Z,101603.69
2023-05-14T20:40:34.981Z,101598.03
2023-05-14T20:50:56.382Z,101602.03
2023-05-14T21:01:17.832Z,101593.44
2023-05-14T21:11:39.286Z,101591.06
2023-05-14T21:22:00.653Z,101586.03
2023-05-14T21:32:22.311Z,101588.41
2023-05-14T21:42:43.878Z,101571.38
2023-05-14T21:53:05.342Z,101564.81
2023-05-14T22:03:27.195Z,101558.03
2023-05-14T22:13:48.592Z,101563.28
2023-05-14T22:24:09.957Z,101549.00
2023-05-14T22:34:31.321Z,101547.03
2023-05-14T22:44:52.672Z,101542.25
2023-05-14T22:55:14.020Z,101524.44
2023-05-14T23:05:35.394Z,101515.34
2023-05-14T23:15:56.872Z,101498.41
2023-05-14T23:26:18.211Z,101493.88
2023-05-14T23:36:40.431Z,101491.63
2023-05-14T23:47:01.889Z,101474.88
2023-05-14T23:57:23.253Z,101473.44
